Time;durP1;ratioP1;P1;durP2;ratioP2;P2;SDS_P1;SDS_P2;PMS_P1;PMS_P2;Temp;Humidity;BMP_temperature;BMP_pressure;BME280_temperature;BME280_humidity;BME280_pressure;Samples;Min_cycle;Max_cycle;Signal;HPM_P1;HPM_P2
2022/07/26 00:01:11;;;;;;;12.07;10.00;;;;;;;24.98;72.64;97980.81;4992504;28;20191;-62
2022/07/26 00:03:37;;;;;;;11.00;9.85;;;;;;;24.96;72.34;97988.13;4991501;28;20186;-61
2022/07/26 00:06:02;;;;;;;10.98;9.88;;;;;;;24.95;72.34;97985.72;4992538;28;20179;-62
2022/07/26 00:08:28;;;;;;;11.20;10.05;;;;;;;25.04;72.12;97989.75;4992536;28;20262;-61
2022/07/26 00:10:53;;;;;;;11.40;10.40;;;;;;;25.00;72.11;97988.53;4992467;28;20545;-62
2022/07/26 00:13:20;;;;;;;10.85;9.77;;;;;;;24.99;71.90;97982.44;4991186;28;20679;-62
2022/07/26 00:15:47;;;;;;;11.85;10.63;;;;;;;24.88;72.35;97969.00;4992402;28;20187;-61
2022/07/26 00:18:14;;;;;;;10.95;9.85;;;;;;;24.97;72.11;97981.81;4992376;28;20187;-62
2022/07/26 00:20:40;;;;;;;12.75;10.20;;;;;;;24.92;72.31;97972.88;4992351;28;20190;-62
2022/07/26 00:23:06;;;;;;;11.45;10.23;;;;;;;24.87;73.03;97984.09;4992385;28;20211;-62
2022/07/26 00:25:31;;;;;;;10.27;9.38;;;;;;;24.81;73.46;97974.31;4992326;28;20249;-61
2022/07/26 00:27:57;;;;;;;10.63;9.52;;;;;;;24.80;73.61;97978.00;4991055;28;20171;-62
2022/07/26 00:30:22;;;;;;;13.00;9.70;;;;;;;24.62;74.20;97992.84;4991057;28;20265;-62
2022/07/26 00:32:48;;;;;;;11.48;10.27;;;;;;;24.59;74.53;97995.88;4992061;28;20257;-61
2022/07/26 00:35:14;;;;;;;10.88;9.82;;;;;;;24.55;74.98;97998.09;4995374;28;20640;-62
2022/07/26 00:37:40;;;;;;;10.52;9.52;;;;;;;24.39;75.73;97993.19;4996021;28;20167;-63
2022/07/26 00:40:06;;;;;;;11.35;10.23;;;;;;;24.37;75.38;97991.78;4996126;28;20175;-63
2022/07/26 00:42:32;;;;;;;10.80;9.70;;;;;;;24.37;75.61;97989.13;4995651;28;20195;-62
2022/07/26 00:44:57;;;;;;;11.27;10.18;;;;;;;24.22;75.71;97988.50;4995828;28;20201;-62
2022/07/26 00:47:23;;;;;;;11.00;9.90;;;;;;;24.27;75.80;97988.72;4994565;28;20175;-62
2022/07/26 00:49:48;;;;;;;10.93;9.75;;;;;;;24.25;76.34;97985.44;4995700;28;20205;-61
2022/07/26 00:52:14;;;;;;;10.73;9.73;;;;;;;24.20;76.25;97986.03;4995711;28;20285;-61
2022/07/26 00:54:44;;;;;;;10.80;9.80;;;;;;;24.27;75.91;97986.06;4996029;28;20209;-62
2022/07/26 00:57:10;;;;;;;12.35;10.07;;;;;;;24.29;76.11;97981.38;4994717;28;20183;-62
2022/07/26 00:59:36;;;;;;;11.57;10.45;;;;;;;24.21;76.37;97971.00;4995573;28;20171;-62
2022/07/26 01:02:03;;;;;;;14.48;10.43;;;;;;;24.31;76.01;97980.16;4995393;28;20333;-62
2022/07/26 01:04:29;;;;;;;13.45;10.73;;;;;;;24.30;75.90;97981.19;4995503;28;20186;-62
2022/07/26 01:06:55;;;;;;;11.93;10.38;;;;;;;24.37;75.66;97976.72;4995716;28;20175;-62
2022/07/26 01:09:21;;;;;;;10.73;9.73;;;;;;;24.20;76.42;97979.97;4995658;28;20182;-61
2022/07/26 01:11:46;;;;;;;11.50;9.32;;;;;;;24.23;76.55;97977.72;4995595;28;20175;-62
2022/07/26 01:14:11;;;;;;;11.30;10.30;;;;;;;24.23;76.71;97968.16;4995299;28;20207;-61
2022/07/26 01:16:37;;;;;;;10.82;9.70;;;;;;;24.36;75.63;97976.91;4995229;28;20167;-61
2022/07/26 01:19:02;;;;;;;14.55;10.90;;;;;;;24.21;76.45;97971.81;4995197;28;20171;-61
2022/07/26 01:21:30;;;;;;;10.85;9.75;;;;;;;24.17;76.57;97976.91;4995341;28;20202;-62
2022/07/26 01:23:55;;;;;;;12.18;10.60;;;;;;;24.17;76.57;97971.63;4995445;28;20234;-61
2022/07/26 01:26:21;;;;;;;11.40;10.18;;;;;;;24.12;76.57;97958.97;4995073;28;20226;-62
2022/07/26 01:28:48;;;;;;;11.73;10.63;;;;;;;24.10;76.59;97964.44;4995204;28;20185;-62
2022/07/26 01:31:14;;;;;;;10.80;9.55;;;;;;;23.97;77.89;97973.38;4994148;28;20179;-62
2022/07/26 01:33:40;;;;;;;11.18;10.18;;;;;;;23.92;78.03;97959.94;4994777;28;20213;-61
2022/07/26 01:36:07;;;;;;;11.38;10.20;;;;;;;23.83;78.41;97955.84;4995070;28;20183;-61
2022/07/26 01:38:32;;;;;;;11.63;10.18;;;;;;;23.93;78.09;97962.41;4994894;28;20175;-61
2022/07/26 01:40:58;;;;;;;13.32;10.93;;;;;;;23.83;78.63;97960.09;4993480;28;20179;-61
2022/07/26 01:43:23;;;;;;;10.90;9.80;;;;;;;23.86;78.61;97966.81;4994727;28;20261;-61
2022/07/26 01:45:49;;;;;;;10.85;9.75;;;;;;;23.79;79.19;97966.78;5009725;28;20171;-61
2022/07/26 01:48:14;;;;;;;11.68;10.55;;;;;;;23.83;79.16;97966.41;4994743;28;20640;-62
2022/07/26 01:50:40;;;;;;;11.98;10.55;;;;;;;23.73;79.91;97968.59;4994943;28;20190;-61
2022/07/26 01:53:05;;;;;;;10.93;9.82;;;;;;;23.78;80.19;97970.44;4993346;28;20175;-62
2022/07/26 01:55:31;;;;;;;11.35;9.90;;;;;;;23.67;80.82;97967.56;4993265;28;20666;-62
2022/07/26 01:57:56;;;;;;;11.63;10.40;;;;;;;23.79;79.84;97966.00;4994471;28;20179;-62
2022/07/26 02:00:22;;;;;;;13.05;11.25;;;;;;;23.77;82.63;97963.53;4994491;28;20178;-61
2022/07/26 02:02:47;;;;;;;12.68;11.20;;;;;;;23.52;85.33;97969.53;4994413;28;20186;-61
2022/07/26 02:05:12;;;;;;;11.73;10.60;;;;;;;23.33;86.78;97958.88;4994452;28;20209;-62
2022/07/26 02:07:41;;;;;;;11.73;10.63;;;;;;;23.12;89.05;97957.09;4994425;28;20175;-62
2022/07/26 02:10:08;;;;;;;12.10;10.80;;;;;;;23.13;88.29;97953.44;4994227;28;20175;-62
2022/07/26 02:12:33;;;;;;;11.27;10.18;;;;;;;23.21;85.29;97949.88;4994150;28;20171;-62
2022/07/26 02:14:59;;;;;;;12.05;10.93;;;;;;;23.45;83.41;97965.22;4994226;28;20175;-61
2022/07/26 02:17:24;;;;;;;13.80;10.75;;;;;;;23.48;82.55;97956.94;4994442;28;20244;-61
2022/07/26 02:19:51;;;;;;;14.15;10.45;;;;;;;23.45;82.22;97962.59;4994109;28;20218;-61
2022/07/26 02:22:17;;;;;;;12.50;10.90;;;;;;;23.57;81.46;97956.56;4994185;28;20187;-61
2022/07/26 02:24:43;;;;;;;11.77;10.73;;;;;;;23.50;81.21;97957.53;4992757;28;20175;-61
2022/07/26 02:27:08;;;;;;;11.88;10.77;;;;;;;23.36;82.28;97959.28;4994058;28;20763;-61
2022/07/26 02:29:34;;;;;;;11.63;10.63;;;;;;;23.20;82.76;97945.63;4992628;28;20230;-61
2022/07/26 02:31:59;;;;;;;12.38;11.20;;;;;;;23.23;83.14;97942.56;4993707;28;20294;-61
2022/07/26 02:34:25;;;;;;;11.68;10.40;;;;;;;23.26;83.24;97950.13;4993811;28;20738;-61
2022/07/26 02:36:50;;;;;;;11.57;9.98;;;;;;;23.24;83.63;97937.09;4992574;28;20719;-62
2022/07/26 02:39:16;;;;;;;11.93;10.75;;;;;;;23.31;83.02;97950.34;4993938;28;20644;-61
2022/07/26 02:41:42;;;;;;;11.45;10.25;;;;;;;23.24;83.19;97944.22;4993681;28;20198;-61
2022/07/26 02:44:08;;;;;;;12.07;10.90;;;;;;;23.24;83.19;97944.22;4993553;28;20632;-61
2022/07/26 02:46:33;;;;;;;12.32;11.02;;;;;;;23.28;83.49;97951.56;4993673;28;20182;-61
2022/07/26 02:48:59;;;;;;;13.45;10.55;;;;;;;23.31;82.92;97953.78;4993609;28;20171;-61
2022/07/26 02:51:25;;;;;;;13.15;10.77;;;;;;;23.41;82.21;97954.25;4993559;28;20171;-62
2022/07/26 02:53:51;;;;;;;13.60;11.70;;;;;;;23.35;82.11;97956.84;4993728;28;20175;-61
2022/07/26 02:56:16;;;;;;;16.77;10.98;;;;;;;23.45;81.27;97963.41;4993353;28;20632;-61
2022/07/26 02:58:42;;;;;;;11.88;10.75;;;;;;;23.49;80.59;97963.84;4993217;28;20561;-61
2022/07/26 03:01:07;;;;;;;11.55;10.40;;;;;;;23.42;80.82;97963.00;4992002;28;20298;-61
2022/07/26 03:03:33;;;;;;;11.90;10.23;;;;;;;23.33;81.64;97956.22;4993334;28;20318;-61
2022/07/26 03:05:58;;;;;;;11.77;10.65;;;;;;;23.31;81.75;97961.69;4992017;28;20187;-61
2022/07/26 03:08:24;;;;;;;12.00;10.75;;;;;;;23.27;82.12;97960.50;4993198;28;20269;-61
2022/07/26 03:10:49;;;;;;;13.40;10.73;;;;;;;23.17;83.10;97964.47;4991943;28;20266;-61
2022/07/26 03:13:14;;;;;;;15.75;11.32;;;;;;;23.14;83.33;97964.84;4993280;28;20171;-61
2022/07/26 03:15:40;;;;;;;13.80;11.10;;;;;;;23.10;83.62;97959.13;4993159;28;20171;-62
2022/07/26 03:18:05;;;;;;;11.55;10.05;;;;;;;23.07;83.54;97958.72;4993324;28;20186;-62
2022/07/26 03:20:31;;;;;;;13.82;11.15;;;;;;;23.07;83.79;97961.34;4992974;28;20211;-61
2022/07/26 03:22:56;;;;;;;12.50;10.75;;;;;;;23.09;83.78;97967.25;4993063;28;20234;-61
2022/07/26 03:25:22;;;;;;;12.43;10.60;;;;;;;23.02;84.04;97967.19;4992931;28;20174;-61
2022/07/26 03:27:47;;;;;;;11.75;10.35;;;;;;;22.93;85.47;97976.28;4992844;28;20667;-61
2022/07/26 03:30:13;;;;;;;12.07;10.88;;;;;;;22.89;85.63;97976.88;4992865;28;20171;-61
2022/07/26 03:32:39;;;;;;;12.93;11.63;;;;;;;23.03;84.92;97987.31;4990940;28;20258;-61
2022/07/26 03:35:06;;;;;;;12.68;10.82;;;;;;;23.06;84.26;97981.63;4992147;28;20183;-61
2022/07/26 03:37:32;;;;;;;12.35;11.15;;;;;;;23.16;83.39;97989.22;4992033;28;20175;-61
2022/07/26 03:39:57;;;;;;;13.02;11.38;;;;;;;23.21;83.13;97992.13;4992184;28;20221;-61
2022/07/26 03:42:23;;;;;;;11.60;10.48;;;;;;;23.25;83.28;98001.28;4991800;28;20190;-63
2022/07/26 03:44:48;;;;;;;11.45;10.45;;;;;;;23.35;82.02;97993.81;4990622;28;20179;-62
2022/07/26 03:47:13;;;;;;;12.25;10.98;;;;;;;23.40;81.87;97999.31;4991846;28;20736;-62
2022/07/26 03:49:39;;;;;;;12.00;10.73;;;;;;;23.30;82.28;97989.13;4990665;28;20171;-61
2022/07/26 03:52:05;;;;;;;12.73;10.32;;;;;;;23.36;81.72;97995.47;4991904;28;20167;-61
2022/07/26 03:54:30;;;;;;;11.68;10.45;;;;;;;23.36;81.80;98006.03;4991940;28;20714;-61
2022/07/26 03:56:56;;;;;;;11.50;10.40;;;;;;;23.32;82.13;98002.94;4991993;28;20699;-61
2022/07/26 03:59:23;;;;;;;12.27;10.98;;;;;;;23.37;81.98;97994.44;4991788;28;20559;-62
2022/07/26 04:01:49;;;;;;;11.88;10.73;;;;;;;23.50;81.65;98003.25;4991659;28;20253;-61
2022/07/26 04:04:16;;;;;;;12.82;11.05;;;;;;;23.49;81.45;97987.59;4991726;28;20183;-61
2022/07/26 04:06:43;;;;;;;12.35;11.10;;;;;;;23.60;81.22;97998.41;4990482;28;20175;-61
2022/07/26 04:09:09;;;;;;;11.48;10.30;;;;;;;23.60;80.71;97995.78;4992749;28;20206;-61
2022/07/26 04:11:34;;;;;;;13.10;10.25;;;;;;;23.63;80.30;97992.75;4995125;28;20608;-61
2022/07/26 04:14:00;;;;;;;12.68;11.38;;;;;;;23.62;80.75;98001.69;4995137;28;20179;-62
2022/07/26 04:16:26;;;;;;;11.25;10.13;;;;;;;23.54;80.78;98001.03;4995123;28;20663;-62
2022/07/26 04:18:52;;;;;;;11.32;10.10;;;;;;;23.52;80.34;97995.13;4995342;28;20175;-61
2022/07/26 04:21:17;;;;;;;11.52;10.43;;;;;;;23.54;80.22;97998.41;4994913;28;20223;-61
2022/07/26 04:23:43;;;;;;;11.38;10.15;;;;;;;23.58;80.32;97991.69;4995071;28;20210;-61
2022/07/26 04:26:08;;;;;;;11.70;10.55;;;;;;;23.56;79.86;97991.09;4994886;28;20179;-62
2022/07/26 04:28:34;;;;;;;12.73;9.70;;;;;;;23.63;79.47;97988.25;4995013;28;20175;-61
2022/07/26 04:30:59;;;;;;;12.25;10.82;;;;;;;23.75;79.32;97986.69;4993487;28;20175;-62
2022/07/26 04:33:25;;;;;;;11.82;10.73;;;;;;;23.86;78.83;97993.25;4475686;28;15055397;-61
2022/07/26 04:35:51;;;;;;;12.27;11.07;;;;;;;23.83;78.55;97989.19;4994520;28;20730;-62
2022/07/26 04:38:16;;;;;;;11.57;10.40;;;;;;;23.81;78.94;97990.38;4994815;28;20206;-61
2022/07/26 04:40:42;;;;;;;12.15;10.85;;;;;;;23.84;79.35;97993.44;4994721;28;20225;-61
2022/07/26 04:43:08;;;;;;;11.43;10.43;;;;;;;23.74;79.76;97990.34;4995918;28;20226;-62
2022/07/26 04:45:33;;;;;;;11.45;10.35;;;;;;;23.80;80.04;97997.47;4995983;28;20179;-62
2022/07/26 04:47:59;;;;;;;12.35;11.25;;;;;;;23.83;79.43;97988.34;4995848;28;20175;-61
2022/07/26 04:50:26;;;;;;;12.50;11.07;;;;;;;23.97;79.08;97997.16;4995843;28;20174;-62
2022/07/26 04:52:53;;;;;;;10.57;9.65;;;;;;;24.09;78.33;97986.63;4994513;28;20187;-61
2022/07/26 04:55:19;;;;;;;11.50;10.50;;;;;;;24.07;77.75;97987.03;4994478;28;20193;-62
2022/07/26 04:57:45;;;;;;;10.65;9.70;;;;;;;24.15;77.51;97992.97;4995839;28;20258;-61
2022/07/26 05:00:13;;;;;;;13.30;10.15;;;;;;;24.18;77.17;97990.72;4995661;28;20723;-61
2022/07/26 05:02:39;;;;;;;11.20;10.20;;;;;;;24.33;77.06;97994.00;4995794;28;20290;-61
2022/07/26 05:05:06;;;;;;;11.98;10.38;;;;;;;24.25;77.49;97999.47;4994353;28;20266;-62
2022/07/26 05:07:50;;;;;;;11.27;10.07;;;;;;;24.19;77.50;98002.09;4994270;28;20267;-63
2022/07/26 05:10:17;;;;;;;11.38;10.27;;;;;;;24.28;77.15;97999.09;4994539;28;20250;-62
2022/07/26 05:12:44;;;;;;;13.25;10.63;;;;;;;24.33;76.39;97996.63;4995696;28;20182;-62
2022/07/26 05:15:10;;;;;;;12.10;10.90;;;;;;;24.38;74.99;97996.06;4994099;28;20179;-61
2022/07/26 05:17:39;;;;;;;11.15;10.15;;;;;;;24.46;75.21;97995.84;4995183;28;20551;-61
2022/07/26 05:20:06;;;;;;;11.82;10.63;;;;;;;24.45;74.85;97973.06;4993580;28;20210;-62
2022/07/26 05:22:33;;;;;;;11.95;10.70;;;;;;;24.62;74.80;97991.00;4993892;28;20257;-61
2022/07/26 05:24:59;;;;;;;11.63;10.43;;;;;;;24.71;74.78;97992.44;4995374;28;20222;-61
2022/07/26 05:27:24;;;;;;;10.82;9.77;;;;;;;24.75;74.08;97984.91;4995417;28;20171;-61
2022/07/26 05:29:49;;;;;;;11.05;10.05;;;;;;;24.86;72.79;97992.22;4995359;28;20636;-62
2022/07/26 05:32:15;;;;;;;13.18;10.35;;;;;;;24.88;73.14;97990.19;4994970;28;20638;-61
2022/07/26 05:34:41;;;;;;;11.40;10.23;;;;;;;24.89;73.35;97981.22;4995282;28;20625;-61
2022/07/26 05:37:06;;;;;;;11.10;10.10;;;;;;;25.04;72.25;97984.47;4995217;28;20175;-61
2022/07/26 05:39:32;;;;;;;11.38;10.23;;;;;;;25.13;71.76;97985.91;4995913;28;20647;-61
2022/07/26 05:41:57;;;;;;;11.65;10.07;;;;;;;25.19;70.90;97983.22;4994852;28;20203;-61
2022/07/26 05:44:23;;;;;;;11.45;10.35;;;;;;;25.31;71.25;97991.38;4994794;28;20691;-61
2022/07/26 05:46:49;;;;;;;11.00;9.93;;;;;;;25.38;70.74;97987.66;4995034;28;20270;-61
2022/07/26 05:49:14;;;;;;;11.13;10.05;;;;;;;25.45;70.15;97990.31;4994795;28;20172;-61
2022/07/26 05:51:39;;;;;;;11.48;10.30;;;;;;;25.53;70.32;97988.25;4994812;28;20171;-61
2022/07/26 05:54:05;;;;;;;10.40;9.40;;;;;;;25.68;70.09;97998.59;4994616;28;20702;-62
2022/07/26 05:56:30;;;;;;;11.75;10.75;;;;;;;25.73;70.35;97988.19;4993523;28;20265;-61
2022/07/26 05:58:55;;;;;;;11.95;10.73;;;;;;;25.88;68.68;97989.53;4994585;28;20174;-61
2022/07/26 06:01:21;;;;;;;12.50;11.27;;;;;;;25.97;68.92;97993.59;4994712;28;20705;-61
2022/07/26 06:03:46;;;;;;;12.27;10.73;;;;;;;26.11;69.66;97989.84;4994589;28;20167;-61
2022/07/26 06:06:12;;;;;;;11.73;10.40;;;;;;;26.30;68.40;97988.91;4994078;28;20282;-62
2022/07/26 06:08:37;;;;;;;11.68;10.48;;;;;;;26.33;67.43;97979.72;4994251;28;20182;-63
2022/07/26 06:11:03;;;;;;;11.38;10.27;;;;;;;26.54;67.18;97988.16;4993102;28;20177;-62
2022/07/26 06:13:28;;;;;;;11.32;10.23;;;;;;;26.67;65.48;97974.81;4994308;28;20207;-61
2022/07/26 06:15:54;;;;;;;11.15;10.00;;;;;;;26.80;64.21;97981.81;4994485;28;20270;-61
2022/07/26 06:18:19;;;;;;;11.27;10.20;;;;;;;26.96;64.40;97979.44;4994227;28;20249;-61
2022/07/26 06:20:46;;;;;;;11.40;10.43;;;;;;;27.03;63.90;97974.06;4993362;28;20182;-62
2022/07/26 06:23:12;;;;;;;11.75;10.55;;;;;;;27.20;63.22;97975.16;4993412;28;20681;-61
2022/07/26 06:25:37;;;;;;;11.32;10.32;;;;;;;27.21;63.50;97977.59;4994038;28;20266;-63
2022/07/26 06:28:04;;;;;;;10.95;9.80;;;;;;;27.30;62.74;97970.94;4994014;28;20679;-63
2022/07/26 06:30:30;;;;;;;11.73;10.48;;;;;;;27.32;62.77;97963.56;4994067;28;20182;-61
2022/07/26 06:32:55;;;;;;;10.93;9.68;;;;;;;27.22;63.59;97973.91;4992982;28;20211;-61
2022/07/26 06:35:22;;;;;;;14.10;9.65;;;;;;;27.29;63.22;97968.53;4992937;28;20262;-62
2022/07/26 06:37:49;;;;;;;10.43;9.43;;;;;;;27.46;62.86;97965.03;4994092;28;20183;-62
2022/07/26 06:40:14;;;;;;;11.65;10.43;;;;;;;27.54;63.61;97961.28;4993811;28;20182;-61
2022/07/26 06:42:39;;;;;;;18.35;12.80;;;;;;;27.65;63.12;97956.00;4993742;28;20273;-61
2022/07/26 06:45:05;;;;;;;14.68;12.18;;;;;;;27.80;62.12;97959.13;4992867;28;20178;-61
2022/07/26 06:47:31;;;;;;;14.07;12.52;;;;;;;27.93;61.16;97961.63;4992342;28;20190;-62
2022/07/26 06:49:56;;;;;;;13.50;12.10;;;;;;;28.07;61.06;97957.75;4993637;28;20171;-63
2022/07/26 06:52:22;;;;;;;18.88;11.73;;;;;;;28.18;59.79;97962.31;4993572;28;20183;-62
2022/07/26 06:54:47;;;;;;;12.85;11.52;;;;;;;28.30;59.11;97955.16;4993556;28;20175;-61
2022/07/26 06:57:13;;;;;;;18.17;12.23;;;;;;;28.38;59.70;97962.84;4993682;28;20179;-62
2022/07/26 06:59:38;;;;;;;14.95;11.77;;;;;;;28.46;59.00;97961.69;4993449;28;20178;-63
2022/07/26 07:02:04;;;;;;;13.23;11.55;;;;;;;28.46;58.80;97951.06;4993401;28;20642;-62
2022/07/26 07:04:31;;;;;;;16.77;11.82;;;;;;;28.42;59.18;97952.53;4993450;28;20671;-62
2022/07/26 07:07:01;;;;;;;13.30;11.90;;;;;;;28.49;58.96;97956.72;4993322;28;20202;-62
2022/07/26 07:09:27;;;;;;;15.57;11.60;;;;;;;28.56;59.32;97957.44;4993722;28;20175;-62
2022/07/26 07:11:53;;;;;;;14.50;12.88;;;;;;;28.64;58.86;97953.63;4993455;28;20172;-62
2022/07/26 07:14:18;;;;;;;19.83;13.23;;;;;;;28.65;58.43;97958.72;4993217;28;20620;-62
2022/07/26 07:16:44;;;;;;;15.18;13.02;;;;;;;28.76;58.03;97962.44;4993069;28;20613;-62
2022/07/26 07:19:09;;;;;;;13.65;12.10;;;;;;;28.82;58.77;97962.34;4993326;28;20171;-62
2022/07/26 07:21:35;;;;;;;15.23;12.70;;;;;;;28.84;57.38;97959.41;4992976;28;20202;-62
2022/07/26 07:24:00;;;;;;;15.82;11.80;;;;;;;28.92;57.66;97975.88;4993389;28;20175;-62
2022/07/26 07:26:25;;;;;;;16.30;12.77;;;;;;;28.85;57.31;97967.19;4993262;28;20171;-62
2022/07/26 07:28:51;;;;;;;13.95;12.02;;;;;;;28.88;57.60;97965.91;4993202;28;20179;-62
2022/07/26 07:31:16;;;;;;;14.15;11.68;;;;;;;28.87;58.20;97965.09;4992907;28;20167;-62
2022/07/26 07:33:42;;;;;;;13.15;11.85;;;;;;;28.95;58.55;97971.94;4992719;28;20260;-62
2022/07/26 07:36:08;;;;;;;14.57;11.18;;;;;;;29.00;57.26;97962.25;4992885;28;20660;-62
2022/07/26 07:38:33;;;;;;;14.88;12.70;;;;;;;29.10;57.29;97967.78;4992871;28;20662;-62
2022/07/26 07:40:58;;;;;;;15.88;12.10;;;;;;;29.21;57.42;97974.97;4992789;28;20641;-62
2022/07/26 07:43:24;;;;;;;13.80;11.55;;;;;;;29.27;56.84;97970.56;4992662;28;20198;-63
2022/07/26 07:45:49;;;;;;;14.57;12.77;;;;;;;29.36;56.78;97963.81;4992678;28;20202;-63
2022/07/26 07:48:15;;;;;;;15.15;12.38;;;;;;;29.36;57.10;97963.81;4992658;28;20218;-63
2022/07/26 07:50:40;;;;;;;15.20;12.90;;;;;;;29.47;55.21;97974.47;4992684;28;20175;-62
2022/07/26 07:53:06;;;;;;;14.18;12.15;;;;;;;29.44;55.57;97979.47;4992692;28;20663;-62
2022/07/26 07:55:31;;;;;;;14.95;12.48;;;;;;;29.28;55.87;97945.53;4992889;28;20174;-62
2022/07/26 07:57:57;;;;;;;13.75;12.20;;;;;;;29.27;56.95;97970.56;4992833;28;20664;-62
2022/07/26 08:00:22;;;;;;;17.35;12.40;;;;;;;29.35;56.03;97970.22;4992592;28;20198;-62
2022/07/26 08:02:47;;;;;;;13.80;12.23;;;;;;;29.32;55.89;97963.50;4992539;28;20640;-62
2022/07/26 08:05:13;;;;;;;18.17;12.93;;;;;;;29.38;55.73;97964.41;4992586;28;20270;-62
2022/07/26 08:07:39;;;;;;;16.30;11.77;;;;;;;29.48;56.57;97967.28;4992789;28;20186;-62
2022/07/26 08:10:05;;;;;;;16.58;13.10;;;;;;;29.51;55.40;97962.28;4992739;28;20600;-62
2022/07/26 08:12:30;;;;;;;15.70;12.27;;;;;;;29.53;55.32;97962.09;4992736;28;20612;-62
2022/07/26 08:14:56;;;;;;;15.70;12.50;;;;;;;29.63;55.95;97965.78;4991265;28;20234;-62
2022/07/26 08:17:21;;;;;;;13.27;11.93;;;;;;;29.63;55.20;97955.13;4992689;28;20209;-62
2022/07/26 08:19:47;;;;;;;13.45;11.93;;;;;;;29.58;55.27;97957.69;4992349;28;20195;-62
2022/07/26 08:22:12;;;;;;;15.52;13.68;;;;;;;29.57;55.48;97956.03;4992260;28;20195;-62
2022/07/26 08:24:38;;;;;;;15.25;13.05;;;;;;;29.57;55.43;97955.25;4992348;28;20655;-62
2022/07/26 08:27:03;;;;;;;14.13;12.63;;;;;;;29.66;56.26;97956.47;4992584;28;20206;-62
2022/07/26 08:29:29;;;;;;;14.73;12.27;;;;;;;29.46;55.76;97954.22;4992350;28;20225;-62
2022/07/26 08:31:54;;;;;;;18.20;12.65;;;;;;;29.36;55.54;97938.00;4992383;28;20187;-62
2022/07/26 08:34:20;;;;;;;17.95;12.27;;;;;;;29.58;56.05;97947.00;4992264;28;20195;-63
2022/07/26 08:36:46;;;;;;;17.17;13.07;;;;;;;29.63;55.07;97948.97;4992248;28;20186;-62
2022/07/26 08:39:11;;;;;;;15.32;11.63;;;;;;;29.61;55.14;97940.41;4992535;28;20179;-62
2022/07/26 08:41:39;;;;;;;16.20;12.60;;;;;;;29.73;55.04;97935.84;4992117;28;20589;-62
2022/07/26 08:44:09;;;;;;;13.52;12.13;;;;;;;29.81;55.64;97932.78;4992508;28;20257;-62
2022/07/26 08:46:36;;;;;;;14.50;13.07;;;;;;;29.97;55.53;97940.03;4992204;28;20531;-62
2022/07/26 08:49:03;;;;;;;14.10;12.48;;;;;;;30.08;54.00;97931.94;4992434;28;20236;-62
2022/07/26 08:51:30;;;;;;;14.48;12.85;;;;;;;30.15;53.88;97924.63;4992421;28;20345;-62
2022/07/26 08:53:57;;;;;;;15.30;12.48;;;;;;;30.17;54.08;97930.56;4992438;28;20535;-62
2022/07/26 08:56:23;;;;;;;14.50;13.10;;;;;;;30.12;54.17;97932.31;4995062;28;20167;-62
2022/07/26 08:58:48;;;;;;;17.33;13.18;;;;;;;30.10;53.89;97932.56;4995710;28;20183;-63
2022/07/26 09:01:14;;;;;;;14.32;12.32;;;;;;;30.10;54.27;97927.22;4995554;28;20171;-63
2022/07/26 09:03:41;;;;;;;18.55;12.55;;;;;;;30.27;53.95;97928.06;4995875;28;20645;-62
2022/07/26 09:06:21;;;;;;;16.60;12.18;;;;;;;30.40;53.60;97927.75;4995547;28;20659;-62
2022/07/26 09:08:51;;;;;;;13.40;12.00;;;;;;;30.57;53.80;97928.56;4995496;28;20617;-62
2022/07/26 09:11:27;;;;;;;12.73;11.32;;;;;;;30.66;52.58;97919.09;4995514;28;20190;-64
2022/07/26 09:13:58;;;;;;;16.95;12.10;;;;;;;30.79;52.57;97909.97;4995517;28;20174;-64
2022/07/26 09:16:24;;;;;;;12.68;11.48;;;;;;;30.90;52.23;97914.41;4995719;28;20673;-63
2022/07/26 09:18:49;;;;;;;14.52;11.73;;;;;;;30.98;52.66;97916.63;4995317;28;20214;-64
2022/07/26 09:21:29;;;;;;;14.93;11.52;;;;;;;31.13;51.63;97923.00;4995454;28;20632;-64
2022/07/26 09:23:55;;;;;;;12.48;11.15;;;;;;;31.21;51.46;97919.94;4995504;28;20256;-63
2022/07/26 09:26:21;;;;;;;14.05;11.30;;;;;;;31.27;50.90;97913.63;4995164;28;20645;-63
2022/07/26 09:29:04;;;;;;;12.25;10.80;;;;;;;31.26;51.38;97912.00;4995453;28;20190;-63
2022/07/26 09:31:30;;;;;;;12.15;10.75;;;;;;;31.28;51.84;97906.38;4993748;28;20221;-64
2022/07/26 09:33:57;;;;;;;10.85;9.75;;;;;;;31.25;52.04;97906.88;4994985;28;20203;-64
2022/07/26 09:36:23;;;;;;;16.27;10.32;;;;;;;31.27;51.80;97894.06;4995260;28;20187;-64
2022/07/26 09:38:57;;;;;;;11.05;9.98;;;;;;;31.48;51.02;97904.75;4994976;28;20190;-64
2022/07/26 09:41:26;;;;;;;10.98;9.88;;;;;;;31.58;50.28;97901.41;4994820;28;20199;-63
2022/07/26 09:43:53;;;;;;;10.70;9.70;;;;;;;31.61;49.56;97896.38;4994869;28;20214;-63
2022/07/26 09:46:20;;;;;;;11.13;10.02;;;;;;;31.64;49.85;97890.50;4994625;28;20179;-64
2022/07/26 09:48:45;;;;;;;10.65;9.65;;;;;;;31.74;49.60;97896.00;4994787;28;20179;-64
2022/07/26 09:51:11;;;;;;;10.48;9.48;;;;;;;31.66;49.33;97892.94;4994730;28;20266;-63
2022/07/26 09:53:43;;;;;;;10.45;9.45;;;;;;;31.63;49.25;97891.56;4994697;28;20175;-64
2022/07/26 09:56:08;;;;;;;10.77;9.55;;;;;;;31.61;49.95;97885.69;4994637;28;20182;-64
2022/07/26 09:58:35;;;;;;;12.82;9.88;;;;;;;31.69;50.40;97882.53;4993259;28;20175;-62
2022/07/26 10:01:01;;;;;;;12.90;10.80;;;;;;;31.84;50.65;97885.41;4994474;28;20188;-62
2022/07/26 10:03:29;;;;;;;9.85;8.85;;;;;;;31.99;50.04;97880.19;4994463;28;20199;-63
2022/07/26 10:05:56;;;;;;;11.75;9.60;;;;;;;31.94;48.01;97880.16;4994220;28;20211;-64
2022/07/26 10:08:22;;;;;;;9.77;8.88;;;;;;;32.07;47.66;97885.06;4994106;28;20237;-64
2022/07/26 10:11:14;;;;;;;10.60;9.60;;;;;;;32.09;46.43;97874.94;4994453;28;20616;-64
2022/07/26 10:13:39;;;;;;;9.32;8.35;;;;;;;32.17;46.89;97869.13;4991524;28;20201;-63
2022/07/26 10:16:05;;;;;;;11.13;9.68;;;;;;;32.30;47.01;97867.91;4994359;28;20176;-63
2022/07/26 10:18:36;;;;;;;10.23;9.32;;;;;;;32.50;46.83;97871.56;4994535;28;20187;-63
2022/07/26 10:21:20;;;;;;;10.57;8.55;;;;;;;32.68;46.49;97865.78;4994432;28;20187;-64
2022/07/26 10:23:59;;;;;;;9.43;8.48;;;;;;;32.82;45.79;97861.59;5009231;28;20194;-65
2022/07/26 10:26:30;;;;;;;9.77;8.88;;;;;;;32.99;45.40;97862.22;4994373;28;20644;-64
2022/07/26 10:29:14;;;;;;;10.15;8.73;;;;;;;33.11;44.31;97860.16;4994444;28;20171;-65
2022/07/26 10:31:40;;;;;;;12.77;8.93;;;;;;;33.17;45.31;97859.09;4993094;28;20600;-63
2022/07/26 10:34:07;;;;;;;9.65;8.55;;;;;;;33.26;43.72;97852.19;4993884;28;20203;-64
2022/07/26 10:36:38;;;;;;;9.35;8.32;;;;;;;33.27;41.77;97851.13;4994185;28;20273;-64
2022/07/26 10:39:15;;;;;;;8.82;8.10;;;;;;;33.25;41.62;97845.22;4994158;28;20167;-64
2022/07/26 10:41:55;;;;;;;9.82;8.82;;;;;;;33.26;42.11;97849.50;4992843;28;20202;-64
2022/07/26 10:44:31;;;;;;;10.27;8.32;;;;;;;33.30;40.93;97842.56;4993841;28;20166;-64
2022/07/26 10:47:03;;;;;;;10.23;7.75;;;;;;;33.36;40.71;97841.53;4993693;28;20163;-65
2022/07/26 10:49:54;;;;;;;9.05;8.23;;;;;;;33.54;40.85;97832.97;5007994;28;20258;-64
2022/07/26 10:52:25;;;;;;;9.05;8.23;;;;;;;33.87;41.33;97837.88;4993850;28;20174;-64
2022/07/26 10:55:00;;;;;;;9.68;8.77;;;;;;;34.22;39.73;97834.44;4993549;28;20206;-64
2022/07/26 10:57:37;;;;;;;8.80;8.10;;;;;;;34.40;40.79;97836.59;4993384;28;20182;-63
2022/07/26 11:00:15;;;;;;;8.55;7.82;;;;;;;34.66;39.88;97832.78;4992212;28;20633;-63
2022/07/26 11:02:42;;;;;;;8.95;8.13;;;;;;;34.86;38.05;97828.19;4993741;28;20202;-63
2022/07/26 11:05:14;;;;;;;9.05;8.35;;;;;;;35.10;38.28;97826.50;4993486;28;20225;-63
2022/07/26 11:07:50;;;;;;;12.13;8.35;;;;;;;35.30;36.47;97815.69;4993596;28;20217;-63
2022/07/26 11:10:21;;;;;;;8.35;7.63;;;;;;;35.46;35.23;97819.09;4993300;28;20190;-63
2022/07/26 11:12:46;;;;;;;8.07;7.38;;;;;;;35.53;35.67;97819.56;4993225;28;20229;-63
2022/07/26 11:15:17;;;;;;;10.07;8.55;;;;;;;35.60;35.06;97815.50;4992040;28;20171;-63
2022/07/26 11:17:42;;;;;;;8.43;7.70;;;;;;;35.82;34.63;97809.72;4991506;28;20175;-64